Time;durP1;ratioP1;P1;durP2;ratioP2;P2;SDS_P1;SDS_P2;PMS_P1;PMS_P2;Temp;Humidity;BMP_temperature;BMP_pressure;BME280_temperature;BME280_humidity;BME280_pressure;Samples;Min_cycle;Max_cycle;Signal;HPM_P1;HPM_P2
2021/11/29 00:00:19;;;;;;;5.17;3.60;;;;;;;-145.69;100.00;71657.09;5137307;27;20197;-75
2021/11/29 00:02:48;;;;;;;5.50;3.53;;;;;;;-145.69;100.00;71661.09;5137621;27;20200;-75
2021/11/29 00:05:16;;;;;;;7.00;4.20;;;;;;;-145.69;100.00;71673.03;5137394;27;20693;-75
2021/11/29 00:07:42;;;;;;;7.20;4.00;;;;;;;-145.69;100.00;71673.03;5137265;27;20253;-75
2021/11/29 00:10:10;;;;;;;7.20;4.30;;;;;;;-145.69;100.00;71677.00;5137565;27;20219;-75
2021/11/29 00:12:37;;;;;;;7.67;4.33;;;;;;;-145.69;100.00;71680.97;5137384;27;20245;-75
2021/11/29 00:15:05;;;;;;;8.70;5.20;;;;;;;-145.69;100.00;71680.97;5137283;27;20193;-75
2021/11/29 00:17:31;;;;;;;8.27;4.80;;;;;;;-145.69;100.00;71673.03;5136642;27;20253;-75
2021/11/29 00:19:58;;;;;;;7.73;5.00;;;;;;;-145.69;100.00;71688.94;5136820;27;20319;-75
2021/11/29 00:22:24;;;;;;;6.33;3.83;;;;;;;-145.69;100.00;71686.97;5137172;27;20235;-75
2021/11/29 00:24:51;;;;;;;7.53;4.40;;;;;;;-145.69;100.00;71694.91;5136905;27;20651;-75
2021/11/29 00:27:19;;;;;;;6.20;3.90;;;;;;;-145.69;100.00;71704.88;5137121;27;20207;-75
2021/11/29 00:29:46;;;;;;;7.27;4.30;;;;;;;-145.69;100.00;71706.84;5136869;27;20232;-76
2021/11/29 00:32:13;;;;;;;7.70;4.50;;;;;;;-145.69;100.00;71712.81;5136929;27;20204;-75
2021/11/29 00:34:39;;;;;;;6.73;4.43;;;;;;;-145.69;100.00;71716.81;5137039;27;20205;-75
2021/11/29 00:37:06;;;;;;;6.47;3.93;;;;;;;-145.69;100.00;71708.84;5137010;27;20197;-75
2021/11/29 00:39:33;;;;;;;5.90;4.03;;;;;;;-145.69;100.00;71712.81;5136878;27;20603;-75
2021/11/29 00:41:59;;;;;;;6.27;4.03;;;;;;;-145.69;100.00;71710.84;5136658;27;20225;-75
2021/11/29 00:44:27;;;;;;;6.43;3.87;;;;;;;-145.69;100.00;71708.84;5136575;27;20708;-75
2021/11/29 00:46:54;;;;;;;6.67;4.10;;;;;;;-145.69;100.00;71712.81;5136667;27;20228;-75
2021/11/29 00:49:21;;;;;;;7.60;4.90;;;;;;;-145.69;100.00;71712.81;5136577;27;20228;-75
2021/11/29 00:51:47;;;;;;;8.07;4.40;;;;;;;-145.69;100.00;71706.84;5136595;27;20224;-75
2021/11/29 00:54:15;;;;;;;6.57;4.00;;;;;;;-145.69;100.00;71708.84;5136768;27;20208;-75
2021/11/29 00:56:42;;;;;;;8.77;4.90;;;;;;;-145.69;100.00;71710.84;5136609;27;20250;-75
2021/11/29 00:59:08;;;;;;;8.53;5.10;;;;;;;-145.69;100.00;71708.84;5136608;27;20288;-75
2021/11/29 01:01:36;;;;;;;4.23;3.03;;;;;;;-145.69;100.00;71714.81;5136087;27;20229;-75
2021/11/29 01:04:04;;;;;;;4.90;3.10;;;;;;;-145.69;100.00;71722.78;5136493;27;20344;-75
2021/11/29 01:06:30;;;;;;;5.40;3.20;;;;;;;-145.69;100.00;71720.78;5135998;27;20552;-75
2021/11/29 01:08:57;;;;;;;4.90;2.87;;;;;;;-145.69;100.00;71724.75;5136252;27;20200;-75
2021/11/29 01:11:23;;;;;;;4.33;3.20;;;;;;;-145.69;100.00;71724.75;5136236;27;20567;-75
2021/11/29 01:13:50;;;;;;;5.73;3.50;;;;;;;-145.69;100.00;71732.72;5136040;27;20215;-75
2021/11/29 01:16:17;;;;;;;6.30;3.30;;;;;;;-145.69;100.00;71724.75;5135867;27;20197;-75
2021/11/29 01:18:44;;;;;;;6.10;3.60;;;;;;;-145.69;100.00;71730.72;5136135;27;20742;-76
2021/11/29 01:21:11;;;;;;;5.70;3.37;;;;;;;-145.69;100.00;71732.72;5135653;27;20691;-75
2021/11/29 01:23:38;;;;;;;6.30;4.27;;;;;;;-145.69;100.00;71732.72;5135978;27;20287;-75
2021/11/29 01:26:04;;;;;;;4.80;3.57;;;;;;;-145.69;100.00;71734.72;5134485;27;20208;-75
2021/11/29 01:28:31;;;;;;;6.70;3.73;;;;;;;-145.69;100.00;71722.78;5135888;27;20295;-75
2021/11/29 01:30:58;;;;;;;6.57;3.50;;;;;;;-145.69;100.00;71732.72;5135809;27;20208;-75
2021/11/29 01:33:24;;;;;;;7.10;3.87;;;;;;;-145.69;100.00;71736.72;5135746;27;20207;-76
2021/11/29 01:35:52;;;;;;;6.97;4.10;;;;;;;-145.69;100.00;71734.72;5135971;27;20197;-75
2021/11/29 01:38:19;;;;;;;9.37;4.27;;;;;;;-145.69;100.00;71738.69;5135819;27;20201;-75
2021/11/29 01:40:45;;;;;;;6.80;4.57;;;;;;;-145.69;100.00;71744.66;5135495;27;20197;-75
2021/11/29 01:43:13;;;;;;;8.07;4.40;;;;;;;-145.69;100.00;71752.63;5135448;27;20205;-75
2021/11/29 01:45:42;;;;;;;7.87;4.63;;;;;;;-145.69;100.00;71762.56;5135628;27;20208;-75
2021/11/29 01:48:10;;;;;;;9.10;4.80;;;;;;;-145.69;100.00;71762.56;5135521;27;20651;-75
2021/11/29 01:50:39;;;;;;;8.57;4.83;;;;;;;-145.69;100.00;71778.50;5135448;27;20208;-76
2021/11/29 01:53:08;;;;;;;8.20;4.43;;;;;;;-145.69;100.00;71776.50;5135562;27;20196;-75
2021/11/29 01:55:37;;;;;;;8.30;4.83;;;;;;;-145.69;100.00;71792.44;5135279;27;20197;-75
2021/11/29 01:58:04;;;;;;;8.07;4.73;;;;;;;-145.69;100.00;71792.44;5135292;27;20197;-75
2021/11/29 02:00:33;;;;;;;10.80;5.17;;;;;;;-145.69;100.00;71790.44;5135300;27;20208;-76
2021/11/29 02:03:03;;;;;;;9.13;5.10;;;;;;;-145.69;100.00;71796.41;5135303;27;20228;-75
2021/11/29 02:05:30;;;;;;;9.47;5.30;;;;;;;-145.69;100.00;71812.31;5135205;27;20201;-76
2021/11/29 02:07:57;;;;;;;12.27;6.07;;;;;;;-145.69;100.00;71806.34;5135037;27;20687;-75
2021/11/29 02:10:26;;;;;;;11.67;6.27;;;;;;;-145.69;100.00;71812.31;5134938;27;20197;-76
2021/11/29 02:12:53;;;;;;;12.33;6.10;;;;;;;-145.69;100.00;71808.34;5135278;27;20200;-75
2021/11/29 02:15:20;;;;;;;13.03;6.23;;;;;;;-145.69;100.00;71808.34;5134952;27;20245;-76
2021/11/29 02:17:47;;;;;;;12.87;6.77;;;;;;;-145.69;100.00;71808.34;5135069;27;20201;-75
2021/11/29 02:20:16;;;;;;;12.83;6.37;;;;;;;-145.69;100.00;71806.34;5134247;27;20236;-75
2021/11/29 02:22:44;;;;;;;15.07;6.90;;;;;;;-145.69;100.00;71812.31;5134783;27;20232;-75
2021/11/29 02:25:11;;;;;;;11.80;6.53;;;;;;;-145.69;100.00;71798.41;5134798;27;20654;-76
2021/11/29 02:27:41;;;;;;;13.83;6.83;;;;;;;-145.69;100.00;71822.28;5134884;27;20563;-76
2021/11/29 02:30:08;;;;;;;13.27;7.00;;;;;;;-145.69;100.00;71820.28;5134750;27;20254;-76
2021/11/29 02:32:34;;;;;;;13.80;6.93;;;;;;;-145.69;100.00;71832.22;5134644;27;20201;-76
2021/11/29 02:35:01;;;;;;;13.30;6.73;;;;;;;-145.69;100.00;71828.25;5134513;27;20201;-76
2021/11/29 02:37:28;;;;;;;15.87;6.97;;;;;;;-145.69;100.00;71814.31;5134490;27;20605;-76
2021/11/29 02:39:57;;;;;;;14.47;7.20;;;;;;;-145.69;100.00;71824.25;5134958;27;20663;-76
2021/11/29 02:42:24;;;;;;;17.73;7.80;;;;;;;-145.69;100.00;71820.28;5134540;27;20224;-76
2021/11/29 02:44:50;;;;;;;12.60;6.90;;;;;;;-145.69;100.00;71820.28;5134597;27;20196;-76
2021/11/29 02:47:17;;;;;;;15.43;7.37;;;;;;;-145.69;100.00;71824.25;5134752;27;20237;-76
2021/11/29 02:49:43;;;;;;;13.43;7.00;;;;;;;-145.69;100.00;71828.25;5134448;27;20204;-76
2021/11/29 02:52:12;;;;;;;16.23;7.47;;;;;;;-145.69;100.00;71828.25;5134449;27;20201;-75
2021/11/29 02:54:40;;;;;;;17.63;8.33;;;;;;;-145.69;100.00;71842.19;5134478;27;20253;-75
2021/11/29 02:57:10;;;;;;;17.40;7.60;;;;;;;-145.69;100.00;71840.19;5134205;27;20197;-76
2021/11/29 02:59:39;;;;;;;15.17;8.10;;;;;;;-145.69;100.00;71838.19;5134385;27;20196;-75
2021/11/29 03:02:09;;;;;;;20.87;8.13;;;;;;;-145.69;100.00;71838.19;5133979;27;20221;-75
2021/11/29 03:04:37;;;;;;;17.83;8.20;;;;;;;-145.69;100.00;71844.16;5134329;27;20249;-75
2021/11/29 03:07:05;;;;;;;16.80;7.70;;;;;;;-145.69;100.00;71842.19;5134276;27;20203;-75
2021/11/29 03:09:32;;;;;;;15.07;7.40;;;;;;;-145.69;100.00;71846.16;5134376;27;20200;-75
2021/11/29 03:11:59;;;;;;;16.93;7.70;;;;;;;-145.69;100.00;71852.13;5134137;27;20226;-75
2021/11/29 03:14:27;;;;;;;19.17;8.33;;;;;;;-145.69;100.00;71848.16;5133928;27;20662;-75
2021/11/29 03:16:55;;;;;;;14.60;7.17;;;;;;;-145.69;100.00;71854.13;5134071;27;20193;-75
2021/11/29 03:19:22;;;;;;;13.13;6.57;;;;;;;-145.69;100.00;71852.13;5133747;27;20583;-74
2021/11/29 03:21:49;;;;;;;13.60;6.97;;;;;;;-145.69;100.00;71860.09;5134164;27;20235;-76
2021/11/29 03:24:16;;;;;;;15.53;8.33;;;;;;;-145.69;100.00;71864.06;5134028;28;20196;-75
2021/11/29 03:26:42;;;;;;;16.13;6.83;;;;;;;-145.69;100.00;71856.09;5133976;28;20196;-75
2021/11/29 03:29:11;;;;;;;15.03;7.70;;;;;;;-145.69;100.00;71862.06;5134109;28;20250;-75
2021/11/29 03:31:40;;;;;;;15.73;7.80;;;;;;;-145.69;100.00;71866.06;5123923;27;20208;-75
2021/11/29 03:34:08;;;;;;;18.17;7.77;;;;;;;-145.69;100.00;71876.00;5117850;28;20202;-75
2021/11/29 03:36:37;;;;;;;15.47;7.60;;;;;;;-145.69;100.00;71874.03;5117798;28;20247;-75
2021/11/29 03:39:07;;;;;;;18.13;8.30;;;;;;;-145.69;100.00;71878.00;5117589;28;20201;-75
2021/11/29 03:41:34;;;;;;;18.47;7.80;;;;;;;-145.69;100.00;71885.97;5117428;28;20232;-76
2021/11/29 03:44:01;;;;;;;18.27;8.47;;;;;;;-145.69;100.00;71876.00;5117512;28;20560;-75
2021/11/29 03:46:27;;;;;;;16.47;8.77;;;;;;;-145.69;100.00;71878.00;5117198;28;20211;-75
2021/11/29 03:48:55;;;;;;;19.93;8.80;;;;;;;-145.69;100.00;71891.94;5117270;28;20198;-75
2021/11/29 03:51:21;;;;;;;18.30;8.17;;;;;;;-145.69;100.00;71899.88;5117073;28;20193;-75
2021/11/29 03:53:48;;;;;;;17.77;8.23;;;;;;;-145.69;100.00;71895.91;5117105;28;20201;-75
2021/11/29 03:56:15;;;;;;;16.67;8.50;;;;;;;-145.69;100.00;71899.88;5117198;28;20567;-76
2021/11/29 03:58:44;;;;;;;14.87;7.60;;;;;;;-145.69;100.00;71891.94;5117062;28;20660;-74
2021/11/29 04:01:11;;;;;;;18.53;8.43;;;;;;;-145.69;100.00;71899.88;5117445;28;20227;-76
2021/11/29 04:03:39;;;;;;;15.13;8.03;;;;;;;-145.69;100.00;71887.94;5117276;28;20225;-76
2021/11/29 04:06:07;;;;;;;16.13;7.87;;;;;;;-145.69;100.00;71897.91;5117132;28;20212;-76
2021/11/29 04:08:33;;;;;;;13.93;7.70;;;;;;;-145.69;100.00;71899.88;5116901;28;20208;-75
2021/11/29 04:11:00;;;;;;;14.17;7.33;;;;;;;-145.69;100.00;71901.88;5116947;28;20208;-76
2021/11/29 04:13:26;;;;;;;16.27;7.90;;;;;;;-145.69;100.00;71909.84;5116755;28;20689;-76
2021/11/29 04:15:53;;;;;;;15.60;8.10;;;;;;;-145.69;100.00;71909.84;5117081;28;20202;-75
2021/11/29 04:18:19;;;;;;;12.83;7.70;;;;;;;-145.69;100.00;71911.84;5116768;28;20205;-76
2021/11/29 04:20:46;;;;;;;18.97;8.73;;;;;;;-145.69;100.00;71921.78;5116587;28;20587;-75
2021/11/29 04:23:14;;;;;;;14.33;7.77;;;;;;;-145.69;100.00;71943.69;5116832;28;20572;-76
2021/11/29 04:25:46;;;;;;;16.83;8.33;;;;;;;-145.69;100.00;71943.69;5116440;28;20251;-75
2021/11/29 04:28:13;;;;;;;17.17;8.93;;;;;;;-145.69;100.00;71939.69;5116875;28;20281;-75
2021/11/29 04:30:40;;;;;;;16.33;9.10;;;;;;;-145.69;100.00;71947.66;5116513;28;20208;-76
2021/11/29 04:33:07;;;;;;;18.03;8.77;;;;;;;-145.69;100.00;71943.69;5116723;28;20197;-76
2021/11/29 04:35:33;;;;;;;16.93;8.50;;;;;;;-145.69;100.00;71951.63;5116288;28;20201;-76
2021/11/29 04:38:00;;;;;;;16.97;8.80;;;;;;;-145.69;100.00;71951.63;5116629;28;20205;-76
2021/11/29 04:40:28;;;;;;;19.53;9.70;;;;;;;-145.69;100.00;71967.56;5116298;28;20201;-76
2021/11/29 04:42:55;;;;;;;22.30;10.60;;;;;;;-145.69;100.00;71967.56;5115745;28;20270;-76
2021/11/29 04:45:21;;;;;;;21.57;9.70;;;;;;;-145.69;100.00;71975.50;5116350;28;20193;-76
2021/11/29 04:47:48;;;;;;;25.00;10.10;;;;;;;-145.69;100.00;71979.50;5116284;28;20194;-75
2021/11/29 04:50:14;;;;;;;19.63;9.60;;;;;;;-145.69;100.00;71975.50;5116282;28;20206;-75
2021/11/29 04:52:41;;;;;;;25.07;10.40;;;;;;;-145.69;100.00;71975.50;5116215;28;20197;-76
2021/11/29 04:55:09;;;;;;;21.97;9.90;;;;;;;-145.69;100.00;71983.47;5116036;28;20197;-76
2021/11/29 04:57:36;;;;;;;21.20;9.20;;;;;;;-145.69;100.00;71975.50;5116183;28;20198;-75
2021/11/29 05:00:05;;;;;;;19.67;9.40;;;;;;;-145.69;100.00;71979.50;5116231;28;20194;-76
2021/11/29 05:02:32;;;;;;;17.10;9.17;;;;;;;-145.69;100.00;71981.50;5116338;28;20225;-76
2021/11/29 05:04:59;;;;;;;15.50;7.87;;;;;;;-145.69;100.00;71977.50;5115964;28;20648;-76
2021/11/29 05:07:25;;;;;;;16.83;8.17;;;;;;;-145.69;100.00;71983.47;5116119;28;20204;-76
2021/11/29 05:09:52;;;;;;;19.33;9.47;;;;;;;-145.69;100.00;71997.41;5116309;28;20212;-76
2021/11/29 05:12:19;;;;;;;18.00;8.87;;;;;;;-145.69;100.00;71985.47;5115869;28;20201;-76
2021/11/29 05:14:47;;;;;;;16.10;8.47;;;;;;;-145.69;100.00;71997.41;5115764;28;20246;-76
2021/11/29 05:17:14;;;;;;;16.33;8.70;;;;;;;-145.69;100.00;72007.34;5115864;28;20208;-76
2021/11/29 05:19:41;;;;;;;21.73;8.83;;;;;;;-145.69;100.00;72007.34;5115559;28;20229;-77
2021/11/29 05:22:07;;;;;;;17.40;9.27;;;;;;;-145.69;100.00;72009.34;5115715;28;20225;-76
2021/11/29 05:24:34;;;;;;;19.37;9.10;;;;;;;-145.69;100.00;72001.38;5115689;28;20208;-76
2021/11/29 05:27:01;;;;;;;17.17;8.80;;;;;;;-145.69;100.00;72007.34;5133764;27;20197;-76
2021/11/29 05:29:28;;;;;;;17.10;8.40;;;;;;;-145.69;100.00;72007.34;5136172;27;20204;-76
2021/11/29 05:31:56;;;;;;;19.37;8.77;;;;;;;-145.69;100.00;72015.31;5136140;27;20253;-75
2021/11/29 05:34:22;;;;;;;17.80;9.13;;;;;;;-145.69;100.00;72015.31;5136244;27;20204;-76
2021/11/29 05:36:49;;;;;;;17.37;8.97;;;;;;;-145.69;100.00;72021.28;5136000;27;20205;-76
2021/11/29 05:39:16;;;;;;;17.20;8.40;;;;;;;-145.69;100.00;72019.31;5136053;27;20257;-76
2021/11/29 05:41:43;;;;;;;18.33;9.10;;;;;;;-145.69;100.00;72015.31;5135962;27;20196;-76
2021/11/29 05:44:09;;;;;;;21.80;8.93;;;;;;;-145.69;100.00;72021.28;5135964;27;20269;-76
2021/11/29 05:46:36;;;;;;;15.87;8.27;;;;;;;-145.69;100.00;72015.31;5135598;27;20197;-76
2021/11/29 05:49:04;;;;;;;16.17;8.33;;;;;;;-145.69;100.00;72029.25;5135535;27;20219;-76
2021/11/29 05:51:30;;;;;;;17.33;8.13;;;;;;;-145.69;100.00;72039.19;5135751;27;20200;-76
2021/11/29 05:53:57;;;;;;;17.67;8.67;;;;;;;-145.69;100.00;72035.22;5134641;27;20197;-76
2021/11/29 05:56:24;;;;;;;19.00;9.40;;;;;;;-145.69;100.00;72043.19;5135537;27;20196;-76
2021/11/29 05:58:51;;;;;;;15.83;8.27;;;;;;;-145.69;100.00;72043.19;5135409;27;20204;-76
2021/11/29 06:01:17;;;;;;;17.90;8.10;;;;;;;-145.69;100.00;72037.22;5135363;27;20211;-76
2021/11/29 06:03:45;;;;;;;17.53;8.93;;;;;;;-145.69;100.00;72051.16;5135031;27;20225;-76
2021/11/29 06:06:13;;;;;;;17.67;8.73;;;;;;;-145.69;100.00;72057.13;5135736;27;20235;-76
2021/11/29 06:08:39;;;;;;;17.53;8.90;;;;;;;-145.69;100.00;72055.13;5135378;27;20792;-76
2021/11/29 06:11:06;;;;;;;17.03;8.70;;;;;;;-145.69;100.00;72061.09;5135316;27;20563;-75
2021/11/29 06:13:33;;;;;;;16.60;8.87;;;;;;;-145.69;100.00;72069.06;5135321;27;20248;-76
2021/11/29 06:15:59;;;;;;;17.90;8.70;;;;;;;-145.69;100.00;72071.03;5135458;27;20254;-76
2021/11/29 06:18:26;;;;;;;23.33;9.00;;;;;;;-145.69;100.00;72079.00;5134930;27;20196;-76
2021/11/29 06:20:52;;;;;;;21.37;9.57;;;;;;;-145.69;100.00;72081.00;5134940;27;20257;-76
2021/11/29 06:23:20;;;;;;;21.07;9.47;;;;;;;-145.69;100.00;72077.00;5135065;27;20250;-76
2021/11/29 06:25:46;;;;;;;21.50;9.67;;;;;;;-145.69;100.00;72079.00;5134837;27;20670;-76
2021/11/29 06:28:13;;;;;;;26.67;10.93;;;;;;;-145.69;100.00;72079.00;5134484;27;20430;-76
2021/11/29 06:30:39;;;;;;;17.43;8.97;;;;;;;-145.69;100.00;72090.94;5134768;27;20201;-76
2021/11/29 06:33:05;;;;;;;20.60;9.37;;;;;;;-145.69;100.00;72090.94;5134606;27;20197;-76
2021/11/29 06:35:33;;;;;;;19.17;9.40;;;;;;;-145.69;100.00;72094.94;5135049;27;20197;-76
2021/11/29 06:38:01;;;;;;;20.70;9.63;;;;;;;-145.69;100.00;72102.88;5134968;27;20775;-77
2021/11/29 06:40:30;;;;;;;21.13;9.63;;;;;;;-145.69;100.00;72096.91;5134837;27;20200;-77
2021/11/29 06:42:58;;;;;;;18.87;9.03;;;;;;;-145.69;100.00;72102.88;5134788;27;20224;-76
2021/11/29 06:45:24;;;;;;;19.17;9.17;;;;;;;-145.69;100.00;72104.88;5134556;27;20211;-76
2021/11/29 06:47:51;;;;;;;19.93;9.77;;;;;;;-145.69;100.00;72118.81;5134732;27;20200;-76
2021/11/29 06:50:19;;;;;;;22.10;10.33;;;;;;;-145.69;100.00;72118.81;5134868;27;20200;-76
2021/11/29 06:52:46;;;;;;;19.27;9.27;;;;;;;-145.69;100.00;72130.75;5134858;27;20205;-76
2021/11/29 06:55:15;;;;;;;20.57;9.23;;;;;;;-145.69;100.00;72126.78;5134559;27;20201;-76
2021/11/29 06:57:43;;;;;;;18.07;9.23;;;;;;;-145.69;100.00;72140.69;5134409;27;20196;-76
2021/11/29 07:00:11;;;;;;;19.10;9.60;;;;;;;-145.69;100.00;72142.69;5134224;27;20196;-76
2021/11/29 07:02:39;;;;;;;21.13;9.33;;;;;;;-145.69;100.00;72146.69;5134173;27;20224;-76
2021/11/29 07:05:07;;;;;;;19.17;9.27;;;;;;;-145.69;100.00;72150.66;5134079;27;20504;-77
2021/11/29 07:07:34;;;;;;;18.97;9.13;;;;;;;-145.69;100.00;72154.63;5134321;27;20666;-76
2021/11/29 07:10:01;;;;;;;18.67;8.53;;;;;;;-145.69;100.00;72156.63;5134133;27;20200;-76
2021/11/29 07:12:27;;;;;;;19.60;8.93;;;;;;;-145.69;100.00;72158.63;5133988;27;20683;-76
2021/11/29 07:14:55;;;;;;;18.37;9.07;;;;;;;-145.69;100.00;72168.56;5134526;27;20261;-76
2021/11/29 07:17:22;;;;;;;18.20;9.03;;;;;;;-145.69;100.00;72160.59;5122374;27;20202;-77
2021/11/29 07:19:53;;;;;;;21.20;9.67;;;;;;;-145.69;100.00;72178.53;5113419;28;20267;-77
2021/11/29 07:22:20;;;;;;;22.42;11.70;;;;;;;-145.69;100.00;72178.53;5112879;28;20468;-76
2021/11/29 07:24:47;;;;;;;22.73;9.57;;;;;;;-145.69;100.00;72182.50;5113588;28;20204;-76
2021/11/29 07:27:13;;;;;;;17.73;8.70;;;;;;;-145.69;100.00;72194.44;5113559;28;20656;-76
2021/11/29 07:29:40;;;;;;;19.30;9.20;;;;;;;-145.69;100.00;72188.47;5113537;28;20201;-76
2021/11/29 07:32:08;;;;;;;18.73;8.80;;;;;;;-145.69;100.00;72186.47;5113646;28;20201;-76
2021/11/29 07:34:35;;;;;;;16.23;8.17;;;;;;;-145.69;100.00;72178.53;5113531;28;20200;-76
2021/11/29 07:37:02;;;;;;;17.60;7.90;;;;;;;-145.69;100.00;72178.53;5113492;28;20248;-76
2021/11/29 07:39:28;;;;;;;17.50;8.83;;;;;;;-145.69;100.00;72172.53;5113192;28;20197;-76
2021/11/29 07:41:57;;;;;;;17.70;7.87;;;;;;;-145.69;100.00;72174.53;5113576;28;20247;-76
2021/11/29 07:44:24;;;;;;;19.87;8.10;;;;;;;-145.69;100.00;72172.53;5113333;28;20625;-76
2021/11/29 07:46:50;;;;;;;17.23;7.90;;;;;;;-145.69;100.00;72180.50;5113400;28;20197;-76
2021/11/29 07:49:18;;;;;;;17.73;8.27;;;;;;;-145.69;100.00;72174.53;5113526;28;20194;-75
2021/11/29 07:51:44;;;;;;;17.00;7.73;;;;;;;-145.69;100.00;72182.50;5113235;28;20193;-76
2021/11/29 07:54:11;;;;;;;16.00;7.40;;;;;;;-145.69;100.00;72194.44;5113021;28;20651;-75
2021/11/29 07:56:37;;;;;;;23.97;8.03;;;;;;;-145.69;100.00;72204.38;5113402;28;20201;-76
2021/11/29 07:59:04;;;;;;;15.83;8.03;;;;;;;-145.69;100.00;72202.41;5113325;28;20194;-75
2021/11/29 08:01:31;;;;;;;16.20;7.70;;;;;;;-145.69;100.00;72198.41;5113249;28;20247;-76
2021/11/29 08:03:57;;;;;;;21.80;9.82;;;;;;;-145.69;100.00;72182.50;5111941;28;20451;-76
2021/11/29 08:06:25;;;;;;;16.23;8.03;;;;;;;-145.69;100.00;72186.47;5113082;28;20251;-76
2021/11/29 08:08:51;;;;;;;16.57;8.37;;;;;;;-145.69;100.00;72200.41;5112960;28;20193;-76
2021/11/29 08:11:18;;;;;;;18.37;8.87;;;;;;;-145.69;100.00;72194.44;5113236;28;20285;-76
2021/11/29 08:13:44;;;;;;;14.97;7.87;;;;;;;-145.69;100.00;72202.41;5113116;28;20254;-76
2021/11/29 08:16:11;;;;;;;18.27;8.57;;;;;;;-145.69;100.00;72216.34;5113181;28;20198;-75
2021/11/29 08:18:37;;;;;;;17.50;8.57;;;;;;;-145.69;100.00;72218.31;5116277;28;20266;-76
2021/11/29 08:21:04;;;;;;;16.70;7.80;;;;;;;-145.69;100.00;72226.28;5116619;28;20229;-76
2021/11/29 08:23:32;;;;;;;19.57;8.80;;;;;;;-145.69;100.00;72226.28;5116485;28;20228;-75
2021/11/29 08:25:59;;;;;;;26.37;10.47;;;;;;;-145.69;100.00;72220.31;5116537;28;20202;-76
2021/11/29 08:28:25;;;;;;;24.40;7.83;;;;;;;-145.69;100.00;72212.34;5116939;28;20201;-76
2021/11/29 08:30:52;;;;;;;18.17;7.90;;;;;;;-145.69;100.00;72230.25;5116717;28;20220;-76
2021/11/29 08:33:19;;;;;;;15.70;7.50;;;;;;;-145.69;100.00;72214.34;5116712;28;20231;-75
2021/11/29 08:35:46;;;;;;;17.40;7.50;;;;;;;-145.69;100.00;72230.25;5117474;28;20197;-76
2021/11/29 08:38:13;;;;;;;17.23;7.97;;;;;;;-145.69;100.00;72222.31;5116459;28;20652;-76
2021/11/29 08:40:42;;;;;;;23.30;9.53;;;;;;;-145.69;100.00;72222.31;5116260;28;20668;-75
2021/11/29 08:43:11;;;;;;;20.87;9.57;;;;;;;-145.69;100.00;72222.31;5116404;28;20220;-75
2021/11/29 08:45:40;;;;;;;19.00;9.20;;;;;;;-145.69;100.00;72216.34;5116207;28;20197;-76
2021/11/29 08:48:09;;;;;;;17.97;8.10;;;;;;;-145.69;100.00;72212.34;5116133;28;20610;-77
2021/11/29 08:50:39;;;;;;;19.50;8.77;;;;;;;-145.69;100.00;72204.38;5116191;28;20197;-77
2021/11/29 08:53:09;;;;;;;15.90;7.50;;;;;;;-145.69;100.00;72180.50;5116086;28;20675;-77
2021/11/29 08:55:37;;;;;;;16.57;7.77;;;;;;;-145.69;100.00;72172.53;5116322;28;20197;-77
2021/11/29 08:58:07;;;;;;;17.23;7.93;;;;;;;-145.69;100.00;72154.63;5116205;28;20246;-75
2021/11/29 09:00:34;;;;;;;11.27;6.33;;;;;;;-145.69;100.00;72154.63;5116028;28;20287;-75
2021/11/29 09:03:04;;;;;;;15.90;6.60;;;;;;;-145.69;100.00;72162.59;5115872;28;20219;-76
2021/11/29 09:05:31;;;;;;;16.63;8.05;;;;;;;-145.69;100.00;72174.53;5114729;28;20948;-75
2021/11/29 09:07:57;;;;;;;14.07;7.07;;;;;;;-145.69;100.00;72190.47;5115982;28;20240;-75
2021/11/29 09:10:30;;;;;;;12.40;6.40;;;;;;;-145.69;100.00;72198.41;5120741;27;20246;-75
2021/11/29 09:12:56;;;;;;;13.10;6.57;;;;;;;-145.69;100.00;72186.47;5136269;27;20204;-75
2021/11/29 09:15:24;;;;;;;16.30;6.50;;;;;;;-145.69;100.00;72184.50;5136093;27;20201;-75
2021/11/29 09:17:51;;;;;;;14.13;6.27;;;;;;;-145.69;100.00;72192.44;5136393;27;20208;-76
2021/11/29 09:20:23;;;;;;;13.20;6.47;;;;;;;-145.69;100.00;72186.47;5135851;27;20236;-75
2021/11/29 09:22:52;;;;;;;15.70;6.37;;;;;;;-145.69;100.00;72188.47;5136063;27;20205;-75
2021/11/29 09:25:19;;;;;;;11.97;6.20;;;;;;;-145.69;100.00;72204.38;5135844;27;20586;-75
2021/11/29 09:27:46;;;;;;;14.23;6.87;;;;;;;-145.69;100.00;72172.53;5136022;27;20201;-76
2021/11/29 09:30:15;;;;;;;13.93;6.30;;;;;;;-145.69;100.00;72190.47;5136138;27;20200;-76
2021/11/29 09:32:43;;;;;;;15.40;6.20;;;;;;;-145.69;100.00;72182.50;5135822;27;20572;-76
2021/11/29 09:35:12;;;;;;;14.33;6.07;;;;;;;-145.69;100.00;72202.41;5135863;27;20200;-75
2021/11/29 09:37:42;;;;;;;16.77;6.33;;;;;;;-145.69;100.00;72214.34;5136016;27;20233;-76
2021/11/29 09:40:12;;;;;;;11.93;6.07;;;;;;;-145.69;100.00;72186.47;5135608;27;20547;-75
2021/11/29 09:42:39;;;;;;;10.60;5.53;;;;;;;-145.69;100.00;72152.66;5135554;27;20820;-75
2021/11/29 09:45:10;;;;;;;13.50;5.67;;;;;;;-145.69;100.00;72146.69;5135551;27;20586;-75
2021/11/29 09:47:37;;;;;;;13.70;5.70;;;;;;;-145.69;100.00;72104.88;5135797;27;20199;-76
2021/11/29 09:50:07;;;;;;;10.97;5.10;;;;;;;-145.69;100.00;72122.78;5135612;27;20200;-76
2021/11/29 09:52:34;;;;;;;12.23;5.83;;;;;;;-145.69;100.00;72146.69;5135535;27;20204;-76
2021/11/29 09:55:03;;;;;;;10.43;5.37;;;;;;;-145.69;100.00;72122.78;5135497;27;20200;-76
2021/11/29 09:57:30;;;;;;;10.30;5.07;;;;;;;-145.69;100.00;72172.53;5135583;27;20236;-75
2021/11/29 09:59:59;;;;;;;7.70;4.23;;;;;;;-145.69;100.00;72178.53;5134896;27;20199;-76
2021/11/29 10:02:25;;;;;;;10.70;4.90;;;;;;;-145.69;100.00;72180.50;5135303;27;20197;-76
2021/11/29 10:04:52;;;;;;;8.70;4.40;;;;;;;-145.69;100.00;72172.53;5135222;27;20232;-75
2021/11/29 10:07:32;;;;;;;10.53;5.30;;;;;;;-145.69;100.00;72154.63;5135335;27;20201;-76
2021/11/29 10:10:10;;;;;;;11.73;5.37;;;;;;;-145.69;100.00;72126.78;5135346;27;20224;-76
2021/11/29 10:12:41;;;;;;;15.27;4.43;;;;;;;-145.69;100.00;72146.69;5134987;27;20612;-76
2021/11/29 10:15:28;;;;;;;8.80;4.70;;;;;;;-145.69;100.00;72166.56;5134998;27;20196;-75
2021/11/29 10:18:11;;;;;;;8.83;4.50;;;;;;;-145.69;100.00;72182.50;5134786;27;20663;-76
2021/11/29 10:20:56;;;;;;;7.97;4.27;;;;;;;-145.69;100.00;72162.59;5134875;27;20304;-76
2021/11/29 10:23:33;;;;;;;11.80;4.50;;;;;;;-145.69;100.00;72178.53;5134684;27;20196;-76
2021/11/29 10:26:06;;;;;;;8.97;3.57;;;;;;;-145.69;100.00;72174.53;5134887;27;20245;-75
2021/11/29 10:28:37;;;;;;;9.23;3.90;;;;;;;-145.69;100.00;72202.41;5134368;27;20196;-75
2021/11/29 10:31:06;;;;;;;8.80;3.70;;;;;;;-145.69;100.00;72220.31;5134572;27;20651;-75
2021/11/29 10:33:44;;;;;;;8.83;3.97;;;;;;;-145.69;100.00;72262.09;5134733;27;20201;-76
2021/11/29 10:36:11;;;;;;;11.00;4.23;;;;;;;-145.69;100.00;72266.09;5134551;27;20209;-75
2021/11/29 10:38:42;;;;;;;11.20;3.57;;;;;;;-145.69;100.00;72278.03;5134434;27;20249;-76
2021/11/29 10:41:11;;;;;;;10.23;3.90;;;;;;;-145.69;100.00;72258.13;5134293;27;20220;-76
2021/11/29 10:43:41;;;;;;;12.07;4.10;;;;;;;-145.69;100.00;72250.16;5134457;27;20290;-76
2021/11/29 10:46:19;;;;;;;9.85;4.95;;;;;;;-145.69;100.00;72242.22;5133297;27;20448;-75
2021/11/29 10:48:46;;;;;;;8.53;4.40;;;;;;;-145.69;100.00;72208.38;5134115;27;20193;-75
2021/11/29 10:51:15;;;;;;;9.33;3.87;;;;;;;-145.69;100.00;72194.44;5134261;27;20199;-75
2021/11/29 10:53:51;;;;;;;13.03;3.43;;;;;;;-145.69;100.00;72202.41;5134482;27;20197;-75
2021/11/29 10:56:20;;;;;;;9.57;3.30;;;;;;;-145.69;100.00;72188.47;5134532;27;20388;-75
2021/11/29 10:58:51;;;;;;;6.37;2.97;;;;;;;-145.69;100.00;72190.47;5134267;27;20200;-76
2021/11/29 11:01:31;;;;;;;11.77;3.57;;;;;;;-145.69;100.00;72190.47;5134285;27;20211;-76
2021/11/29 11:03:58;;;;;;;8.27;3.10;;;;;;;-145.69;100.00;72194.44;5117264;27;20221;-77
2021/11/29 11:06:30;;;;;;;10.83;3.30;;;;;;;-145.69;100.00;72210.38;5113709;28;20193;-76